Edina, MN (55435)

11:08 PM CST on February 11, 2016 (GMT -0600)
Cornelia | | Change Station
CLOSE
Current Station
Personal Weather Station
Location: Edina, MN
Elevation: 860 ft
Nearby Weather Stations

Elev 860 ft 44.87 °N, 93.34 °W | Updated 4 seconds ago

Overcast
Overcast
15.1 °F
Feels Like 15 °F
N
0.4
Wind Variable Wind from West
Gusts 2.5 mph

Today
High -- | Low -- °F
--% Chance of Precip.
Yesterday
High -- | Low -- °F
Precip. -- in
Pressure 30.29 in
Visibility 8.0 miles
Clouds Overcast 4600 ft
Windchill 15 °F
Dew Point 2 °F
Humidity 57%
Rainfall 0.00 in
Snow Depth Not available.
7:20 AM 5:35 PM
Waxing Crescent, 17% visible
METAR KMSP 120453Z 26005KT 8SM OVC046 M10/M14 A3023 RMK AO2 SNE44 SLP255 P0000 T11001139
Pressure 30.29 in
Visibility 8.0 miles
Clouds Overcast 4600 ft
Windchill 15 °F
Dew Point 2 °F
Humidity 57%
Rainfall 0.00 in
Snow Depth Not available.
7:20 AM 5:35 PM
Waxing Crescent, 17% visible
METAR KMSP 120453Z 26005KT 8SM OVC046 M10/M14 A3023 RMK AO2 SNE44 SLP255 P0000 T11001139

10-Day Weather Forecast

Almanac

Astronomy

Feb. 11, 2016 Rise Set
Actual Time
Civil Twilight
Nautical Twilight
Astronomical Twilight
Moon
Length of Visible Light
Length of Day
Tomorrow will be .
, % of the Moon is Illuminated

Today's Extremes

State Highs State Lows

Community

WunderPhotos

Upload Photos

1,892,265 photos uploaded!

WunderBlog® & News

Nearby

Air Quality

  Air Quality AQ Index Pollutant
Not available.

Snow Depth

Station Depth Elevation

Earthquake Activity

City Distance Mag. Time & Date
Minimum magnitude displayed is 2.5.

Coastal Water Temperatures

Place Temperature

Stations

Nearby Weather Stations

Station Location Temp. Windchill Dew Point Humidity Wind Precip. Elev Updated Type
                   

Watches & Warnings

There are currently no watches in effect.